Time;durP1;ratioP1;P1;durP2;ratioP2;P2;SDS_P1;SDS_P2;PMS_P1;PMS_P2;Temp;Humidity;BMP_temperature;BMP_pressure;BME280_temperature;BME280_humidity;BME280_pressure;Samples;Min_cycle;Max_cycle;Signal;HPM_P1;HPM_P2
2024/04/16 00:01:02;;;;;;;;;;;7.60;99.90;;;;;;5408646;26;20413;-74
2024/04/16 00:03:30;;;;;;;;;;;7.60;99.90;;;;;;5417720;26;19960;-74
2024/04/16 00:05:55;;;;;;;;;;;7.60;99.90;;;;;;5363318;26;19929;-75
2024/04/16 00:08:21;;;;;;;;;;;7.70;99.90;;;;;;5417449;26;19935;-74
2024/04/16 00:10:47;;;;;;;;;;;7.70;99.90;;;;;;5419091;26;19928;-73
2024/04/16 00:13:12;;;;;;;;;;;7.60;99.90;;;;;;5428540;26;19929;-74
2024/04/16 00:15:38;;;;;;;;;;;7.60;99.90;;;;;;5394455;26;20280;-75
2024/04/16 00:18:03;;;;;;;;;;;7.60;99.90;;;;;;5440462;26;19929;-74
2024/04/16 00:20:29;;;;;;;;;;;7.70;99.90;;;;;;5406398;26;19935;-74
2024/04/16 00:22:54;;;;;;;;;;;7.70;99.90;;;;;;5419092;26;19929;-75
2024/04/16 00:25:20;;;;;;;;;;;7.70;99.90;;;;;;5428966;26;19928;-74
2024/04/16 00:27:45;;;;;;;;;;;7.80;99.90;;;;;;5417984;26;19929;-75
2024/04/16 00:30:11;;;;;;;;;;;7.60;99.90;;;;;;5419169;26;20358;-74
2024/04/16 00:32:36;;;;;;;;;;;7.60;99.90;;;;;;5451455;26;20023;-73
2024/04/16 00:35:02;;;;;;;;;;;7.40;99.90;;;;;;5419716;26;20044;-74
2024/04/16 00:37:27;;;;;;;;;;;7.60;99.90;;;;;;5419309;26;19997;-75
2024/04/16 00:39:53;;;;;;;;;;;7.60;99.90;;;;;;5451223;26;19939;-74
2024/04/16 00:42:18;;;;;;;;;;;7.70;99.90;;;;;;5429585;26;19936;-75
2024/04/16 00:44:44;;;;;;;;;;;7.70;99.90;;;;;;5450416;26;19936;-75
2024/04/16 00:47:10;;;;;;;;;;;7.60;99.90;;;;;;5452672;26;20281;-74
2024/04/16 00:49:36;;;;;;;;;;;7.80;99.90;;;;;;5451543;26;19928;-74
2024/04/16 00:52:01;;;;;;;;;;;7.80;99.90;;;;;;5428952;26;20336;-74
2024/04/16 00:54:27;;;;;;;;;;;7.50;99.90;;;;;;5415969;26;19936;-74
2024/04/16 00:56:55;;;;;;;;;;;7.60;99.90;;;;;;5416553;26;19929;-74
2024/04/16 00:59:23;;;;;;;;;;;7.60;99.90;;;;;;5421186;26;19940;-74
2024/04/16 01:01:48;;;;;;;;;;;7.70;99.90;;;;;;5428291;26;19998;-72
2024/04/16 01:04:14;;;;;;;;;;;7.50;99.90;;;;;;5388527;26;20253;-74
2024/04/16 01:06:39;;;;;;;;;;;7.50;99.90;;;;;;5424534;26;19929;-74
2024/04/16 01:09:05;;;;;;;;;;;7.50;99.90;;;;;;5420575;26;19929;-74
2024/04/16 01:11:31;;;;;;;;;;;7.60;99.90;;;;;;5386873;26;19961;-74
2024/04/16 01:13:57;;;;;;;;;;;7.60;99.90;;;;;;5407290;26;20265;-74
2024/04/16 01:16:22;;;;;;;;;;;7.30;99.90;;;;;;5404252;26;19940;-74
2024/04/16 01:18:48;;;;;;;;;;;7.20;99.90;;;;;;5430949;26;20027;-74
2024/04/16 01:21:14;;;;;;;;;;;7.30;99.90;;;;;;5416925;26;19936;-74
2024/04/16 01:23:39;;;;;;;;;;;7.20;99.90;;;;;;5417311;26;19929;-74
2024/04/16 01:26:05;;;;;;;;;;;7.20;99.90;;;;;;5417441;26;19929;-75
2024/04/16 01:28:30;;;;;;;;;;;7.40;99.90;;;;;;5417226;26;19929;-74
2024/04/16 01:30:56;;;;;;;;;;;7.50;99.90;;;;;;5416508;26;19957;-75
2024/04/16 01:33:21;;;;;;;;;;;7.60;99.90;;;;;;5385875;26;19937;-72
2024/04/16 01:35:47;;;;;;;;;;;7.70;99.90;;;;;;5421377;26;19929;-72
2024/04/16 01:38:12;;;;;;;;;;;7.90;99.90;;;;;;5417977;26;19936;-73
2024/04/16 01:40:38;;;;;;;;;;;7.90;99.90;;;;;;5385772;26;20002;-72
2024/04/16 01:43:04;;;;;;;;;;;7.90;99.90;;;;;;5386672;26;19970;-72
2024/04/16 01:45:29;;;;;;;;;;;7.80;99.90;;;;;;5416977;26;19957;-72
2024/04/16 01:47:54;;;;;;;;;;;7.80;99.90;;;;;;5386434;26;19929;-73
2024/04/16 01:50:20;;;;;;;;;;;7.80;99.90;;;;;;5415844;26;20372;-73
2024/04/16 01:52:46;;;;;;;;;;;7.70;99.90;;;;;;5398781;26;19929;-73
2024/04/16 01:55:11;;;;;;;;;;;7.80;99.90;;;;;;5385276;26;19929;-73
2024/04/16 01:57:37;;;;;;;;;;;7.90;99.90;;;;;;5385539;26;19929;-73
2024/04/16 02:00:03;;;;;;;;;;;7.90;99.90;;;;;;5415969;26;19998;-72
2024/04/16 02:02:30;;;;;;;;;;;7.80;99.90;;;;;;5407616;26;20270;-72
2024/04/16 02:04:56;;;;;;;;;;;7.50;99.90;;;;;;5391810;26;20061;-72
2024/04/16 02:07:21;;;;;;;;;;;7.40;99.90;;;;;;5434715;26;19997;-73
2024/04/16 02:09:47;;;;;;;;;;;7.50;99.90;;;;;;5412809;26;20001;-75
2024/04/16 02:12:13;;;;;;;;;;;7.50;99.90;;;;;;5450551;26;19929;-73
2024/04/16 02:14:38;;;;;;;;;;;7.50;99.90;;;;;;5398875;26;20415;-72
2024/04/16 02:17:04;;;;;;;;;;;7.30;99.90;;;;;;5423921;26;19928;-72
2024/04/16 02:19:30;;;;;;;;;;;7.40;99.90;;;;;;5418306;26;19936;-72
2024/04/16 02:21:55;;;;;;;;;;;7.30;99.90;;;;;;5440947;26;20001;-73
2024/04/16 02:24:21;;;;;;;;;;;7.30;99.90;;;;;;5434914;26;19936;-74
2024/04/16 02:26:46;;;;;;;;;;;7.20;99.90;;;;;;5448455;26;19929;-74
2024/04/16 02:29:12;;;;;;;;;;;7.20;99.90;;;;;;5428553;26;20268;-74
2024/04/16 02:31:37;;;;;;;;;;;7.50;99.90;;;;;;5438154;26;19936;-74
2024/04/16 02:34:03;;;;;;;;;;;7.50;99.90;;;;;;5404962;26;19935;-75
2024/04/16 02:36:28;;;;;;;;;;;7.50;99.90;;;;;;5426942;26;20347;-74
2024/04/16 02:38:54;;;;;;;;;;;7.50;99.90;;;;;;5418589;26;19935;-75
2024/04/16 02:41:19;;;;;;;;;;;7.60;99.90;;;;;;5448846;26;19929;-74
2024/04/16 02:43:45;;;;;;;;;;;7.60;99.90;;;;;;5449633;26;19929;-75
2024/04/16 02:46:10;;;;;;;;;;;7.60;99.90;;;;;;5417167;26;20357;-74
2024/04/16 02:48:36;;;;;;;;;;;7.50;99.90;;;;;;5404747;26;19929;-74
2024/04/16 02:51:02;;;;;;;;;;;7.60;99.90;;;;;;5447814;26;19928;-74
2024/04/16 02:53:28;;;;;;;;;;;7.60;99.90;;;;;;5417951;26;19944;-74
2024/04/16 02:55:53;;;;;;;;;;;7.70;99.90;;;;;;5438247;26;19984;-75
2024/04/16 02:58:19;;;;;;;;;;;7.70;99.90;;;;;;5414932;26;20261;-74
2024/04/16 03:00:44;;;;;;;;;;;7.70;99.90;;;;;;5407562;26;19929;-74
2024/04/16 03:03:10;;;;;;;;;;;7.60;99.90;;;;;;5415083;26;20268;-72
2024/04/16 03:05:36;;;;;;;;;;;7.40;99.90;;;;;;5415090;26;19936;-74
2024/04/16 03:08:01;;;;;;;;;;;7.40;99.90;;;;;;5383974;26;19962;-72
2024/04/16 03:10:27;;;;;;;;;;;7.50;99.90;;;;;;5415489;26;20020;-74
2024/04/16 03:12:52;;;;;;;;;;;7.50;99.90;;;;;;5413924;26;19940;-73
2024/04/16 03:15:18;;;;;;;;;;;7.50;99.90;;;;;;5410691;26;19937;-73
2024/04/16 03:17:43;;;;;;;;;;;7.40;99.90;;;;;;5416157;26;19933;-73
2024/04/16 03:20:09;;;;;;;;;;;7.50;99.90;;;;;;5418863;26;19929;-72
2024/04/16 03:22:35;;;;;;;;;;;7.50;99.90;;;;;;5419228;26;19980;-74
2024/04/16 03:25:00;;;;;;;;;;;7.40;99.90;;;;;;5419516;26;19990;-74
2024/04/16 03:27:26;;;;;;;;;;;7.40;99.90;;;;;;5387985;26;19965;-75
2024/04/16 03:29:51;;;;;;;;;;;7.40;99.90;;;;;;5387264;26;20392;-74
2024/04/16 03:32:17;;;;;;;;;;;7.30;99.90;;;;;;5419655;26;19936;-74
2024/04/16 03:34:42;;;;;;;;;;;7.20;99.90;;;;;;5419113;26;19965;-75
2024/04/16 03:37:08;;;;;;;;;;;7.10;99.90;;;;;;5429095;26;19961;-74
2024/04/16 03:39:33;;;;;;;;;;;7.20;99.90;;;;;;5388523;26;19940;-74
2024/04/16 03:41:59;;;;;;;;;;;7.30;99.90;;;;;;5420642;26;19940;-74
2024/04/16 03:44:25;;;;;;;;;;;7.60;99.90;;;;;;5391469;26;19929;-74
2024/04/16 03:46:50;;;;;;;;;;;7.50;99.90;;;;;;5420327;26;19939;-73
2024/04/16 03:49:15;;;;;;;;;;;7.40;99.90;;;;;;5389494;26;19937;-74
2024/04/16 03:51:41;;;;;;;;;;;7.50;99.90;;;;;;5419357;26;19929;-74
2024/04/16 03:54:06;;;;;;;;;;;7.30;99.90;;;;;;5404403;26;20342;-74
2024/04/16 03:56:32;;;;;;;;;;;7.40;99.90;;;;;;5419672;26;19929;-74
2024/04/16 03:59:36;;;;;;;;;;;7.30;99.90;;;;;;5420331;26;19936;-74
2024/04/16 04:02:01;;;;;;;;;;;7.30;99.90;;;;;;5417326;26;19928;-74
2024/04/16 04:04:27;;;;;;;;;;;7.50;99.90;;;;;;5418413;26;19929;-74
2024/04/16 04:06:52;;;;;;;;;;;7.50;99.90;;;;;;5417357;26;19929;-74
2024/04/16 04:09:18;;;;;;;;;;;7.30;99.90;;;;;;5386652;26;19937;-75
2024/04/16 04:11:43;;;;;;;;;;;7.30;99.90;;;;;;5408296;26;20347;-74
2024/04/16 04:14:09;;;;;;;;;;;7.30;99.90;;;;;;5387608;26;19929;-74
2024/04/16 04:16:34;;;;;;;;;;;7.30;99.90;;;;;;5384078;26;20368;-74
2024/04/16 04:19:00;;;;;;;;;;;7.30;99.90;;;;;;5387230;26;19929;-74
2024/04/16 04:21:25;;;;;;;;;;;7.10;99.90;;;;;;5417308;26;19929;-74
2024/04/16 04:23:51;;;;;;;;;;;7.10;99.90;;;;;;5419085;26;19936;-74
2024/04/16 04:26:16;;;;;;;;;;;7.10;99.90;;;;;;5417102;26;20263;-74
2024/04/16 04:28:42;;;;;;;;;;;7.20;99.90;;;;;;5392748;26;20348;-74
2024/04/16 04:31:14;;;;;;;;;;;7.20;99.90;;;;;;5429447;26;19945;-73
2024/04/16 04:33:39;;;;;;;;;;;7.20;99.90;;;;;;5400737;26;19929;-74
2024/04/16 04:36:05;;;;;;;;;;;7.10;99.90;;;;;;5424707;26;19937;-74
2024/04/16 04:38:30;;;;;;;;;;;7.10;99.90;;;;;;5390314;26;20036;-74
2024/04/16 04:40:56;;;;;;;;;;;7.20;99.90;;;;;;5422592;26;19929;-74
2024/04/16 04:43:21;;;;;;;;;;;7.30;99.90;;;;;;5418320;26;19929;-73
2024/04/16 04:45:47;;;;;;;;;;;7.40;99.90;;;;;;5422768;26;19929;-74
2024/04/16 04:48:12;;;;;;;;;;;7.50;99.90;;;;;;5373973;26;20324;-74
2024/04/16 04:50:38;;;;;;;;;;;7.70;99.90;;;;;;5379437;26;19929;-73
2024/04/16 04:53:05;;;;;;;;;;;7.80;99.90;;;;;;5417449;26;20284;-74
2024/04/16 04:55:31;;;;;;;;;;;7.70;99.90;;;;;;5389140;26;19929;-73
2024/04/16 04:57:57;;;;;;;;;;;7.90;99.90;;;;;;5385887;26;19929;-74
2024/04/16 05:00:22;;;;;;;;;;;7.80;99.90;;;;;;5413100;26;19929;-73
2024/04/16 05:02:48;;;;;;;;;;;7.60;99.90;;;;;;5403551;26;19929;-74
2024/04/16 05:05:13;;;;;;;;;;;7.70;99.90;;;;;;5406474;26;19937;-74
2024/04/16 05:07:39;;;;;;;;;;;7.80;99.90;;;;;;5416968;26;19998;-73
2024/04/16 05:10:06;;;;;;;;;;;8.00;99.90;;;;;;5385085;26;19936;-74
2024/04/16 05:12:32;;;;;;;;;;;8.20;99.90;;;;;;5417161;26;19997;-73
2024/04/16 05:14:58;;;;;;;;;;;8.30;99.90;;;;;;5392876;26;19929;-73
2024/04/16 05:17:23;;;;;;;;;;;8.10;99.90;;;;;;5407074;26;19941;-73
2024/04/16 05:19:49;;;;;;;;;;;8.10;99.90;;;;;;5385270;26;19941;-74
2024/04/16 05:22:14;;;;;;;;;;;8.10;99.90;;;;;;5385793;26;19940;-73
2024/04/16 05:24:40;;;;;;;;;;;8.10;99.90;;;;;;5385021;26;19929;-73
2024/04/16 05:27:06;;;;;;;;;;;8.20;99.90;;;;;;5416597;26;20364;-73
2024/04/16 05:29:33;;;;;;;;;;;8.10;99.90;;;;;;5405932;26;20333;-74
2024/04/16 05:31:58;;;;;;;;;;;8.20;99.90;;;;;;5414783;26;20388;-73
2024/04/16 05:34:24;;;;;;;;;;;8.10;99.90;;;;;;5441103;26;19929;-73
2024/04/16 05:36:49;;;;;;;;;;;8.10;99.90;;;;;;5438865;26;19968;-73
2024/04/16 05:39:15;;;;;;;;;;;8.10;99.90;;;;;;5384395;26;19932;-72
2024/04/16 05:41:40;;;;;;;;;;;8.10;99.90;;;;;;5394479;26;19940;-74
2024/04/16 05:44:06;;;;;;;;;;;8.20;99.90;;;;;;5446132;26;19997;-75
2024/04/16 05:46:31;;;;;;;;;;;8.20;99.90;;;;;;5429705;26;19929;-73
2024/04/16 05:48:58;;;;;;;;;;;8.20;99.90;;;;;;5437569;26;19929;-73
2024/04/16 05:51:23;;;;;;;;;;;8.20;99.90;;;;;;5372901;26;20290;-73
2024/04/16 05:53:49;;;;;;;;;;;8.20;99.90;;;;;;5400415;26;19979;-75
2024/04/16 05:56:14;;;;;;;;;;;8.10;99.90;;;;;;5426286;26;19982;-73
2024/04/16 05:58:40;;;;;;;;;;;8.10;99.90;;;;;;5423076;26;19998;-77
2024/04/16 06:01:06;;;;;;;;;;;8.10;99.90;;;;;;5418583;26;19940;-76
2024/04/16 06:03:31;;;;;;;;;;;8.10;99.90;;;;;;5421891;26;19935;-77
2024/04/16 06:05:57;;;;;;;;;;;8.10;99.90;;;;;;5417572;26;19929;-74
2024/04/16 06:08:23;;;;;;;;;;;8.00;99.90;;;;;;5385399;26;19929;-74
2024/04/16 06:10:48;;;;;;;;;;;7.90;99.90;;;;;;5412599;26;20392;-74
2024/04/16 06:13:13;;;;;;;;;;;8.00;99.90;;;;;;5418243;26;19936;-74
2024/04/16 06:15:39;;;;;;;;;;;8.00;99.90;;;;;;5423083;26;19940;-74
2024/04/16 06:18:09;;;;;;;;;;;8.10;99.90;;;;;;5428386;26;19941;-73
2024/04/16 06:20:38;;;;;;;;;;;8.10;99.90;;;;;;5391342;26;19928;-74
2024/04/16 06:23:03;;;;;;;;;;;8.10;99.90;;;;;;5424287;26;19941;-75
2024/04/16 06:25:29;;;;;;;;;;;8.10;99.90;;;;;;5390576;26;20336;-75
2024/04/16 06:27:55;;;;;;;;;;;8.10;99.90;;;;;;5422139;26;19939;-75
2024/04/16 06:30:21;;;;;;;;;;;8.10;99.90;;;;;;5394547;26;19942;-76
2024/04/16 06:32:47;;;;;;;;;;;8.10;99.90;;;;;;5377728;26;19929;-73
2024/04/16 06:35:13;;;;;;;;;;;8.10;99.90;;;;;;5422940;26;20373;-73
2024/04/16 06:37:38;;;;;;;;;;;8.20;99.90;;;;;;5395425;26;20002;-74
2024/04/16 06:40:04;;;;;;;;;;;8.20;99.90;;;;;;5426767;26;19937;-76
2024/04/16 06:42:30;;;;;;;;;;;8.10;99.90;;;;;;5426436;26;19978;-77
2024/04/16 06:44:55;;;;;;;;;;;8.00;99.90;;;;;;5416232;26;19967;-74
2024/04/16 06:47:21;;;;;;;;;;;8.10;99.90;;;;;;5391356;26;19935;-75
2024/04/16 06:49:46;;;;;;;;;;;8.30;99.90;;;;;;5424072;26;19933;-75
2024/04/16 06:52:12;;;;;;;;;;;8.30;99.90;;;;;;5386835;26;19928;-78
2024/04/16 06:54:38;;;;;;;;;;;8.40;99.90;;;;;;5423003;26;19941;-75
2024/04/16 06:57:03;;;;;;;;;;;8.60;99.90;;;;;;5418875;26;19929;-75
2024/04/16 06:59:28;;;;;;;;;;;8.60;99.90;;;;;;5427276;26;19929;-75
2024/04/16 07:01:54;;;;;;;;;;;8.70;99.90;;;;;;5388048;26;19936;-76
2024/04/16 07:04:20;;;;;;;;;;;8.70;99.90;;;;;;5386223;26;20363;-75
2024/04/16 07:06:45;;;;;;;;;;;8.60;99.90;;;;;;5416757;26;19929;-75
2024/04/16 07:09:11;;;;;;;;;;;8.60;99.90;;;;;;5381214;26;20337;-75
2024/04/16 07:11:37;;;;;;;;;;;8.60;99.90;;;;;;5389123;26;19929;-77
2024/04/16 07:14:02;;;;;;;;;;;8.70;99.90;;;;;;5383715;26;20299;-76
2024/04/16 07:16:28;;;;;;;;;;;8.70;99.90;;;;;;5427376;26;19928;-76
2024/04/16 07:18:53;;;;;;;;;;;8.70;99.90;;;;;;5386070;26;19997;-75
2024/04/16 07:21:18;;;;;;;;;;;8.70;99.90;;;;;;5413834;26;20006;-75
2024/04/16 07:23:44;;;;;;;;;;;8.80;99.90;;;;;;5420395;26;20364;-75
2024/04/16 07:26:09;;;;;;;;;;;8.90;99.90;;;;;;5426070;26;19929;-76
2024/04/16 07:28:35;;;;;;;;;;;9.00;99.90;;;;;;5419223;26;19929;-76
2024/04/16 07:31:01;;;;;;;;;;;8.90;99.90;;;;;;5415769;26;20320;-76
2024/04/16 07:33:26;;;;;;;;;;;8.90;99.90;;;;;;5387489;26;19929;-77
2024/04/16 07:35:54;;;;;;;;;;;8.90;99.90;;;;;;5384883;26;19939;-76
2024/04/16 07:38:19;;;;;;;;;;;8.80;99.90;;;;;;5419648;26;19929;-76
2024/04/16 07:40:54;;;;;;;;;;;9.10;99.90;;;;;;5414507;26;19939;-76
2024/04/16 07:43:22;;;;;;;;;;;9.10;99.90;;;;;;5421821;26;19948;-76
2024/04/16 07:45:47;;;;;;;;;;;9.00;99.90;;;;;;5388599;26;19929;-77
2024/04/16 07:48:13;;;;;;;;;;;9.00;99.90;;;;;;5421051;26;19975;-77
2024/04/16 07:50:39;;;;;;;;;;;9.10;99.90;;;;;;5415447;26;19929;-77
2024/04/16 07:53:04;;;;;;;;;;;9.20;99.90;;;;;;5388717;26;19935;-76
2024/04/16 07:55:30;;;;;;;;;;;9.40;99.90;;;;;;5387259;26;19957;-75
2024/04/16 07:57:56;;;;;;;;;;;9.50;99.90;;;;;;5415865;26;20004;-76
2024/04/16 08:00:23;;;;;;;;;;;9.70;99.90;;;;;;5383725;26;19929;-75
2024/04/16 08:02:48;;;;;;;;;;;9.80;99.90;;;;;;5383265;26;20372;-77
2024/04/16 08:05:14;;;;;;;;;;;10.00;99.90;;;;;;5382950;26;19929;-76
2024/04/16 08:07:40;;;;;;;;;;;10.00;99.90;;;;;;5417072;26;19929;-76
2024/04/16 08:10:05;;;;;;;;;;;10.00;99.90;;;;;;5383973;26;19961;-78
2024/04/16 08:12:31;;;;;;;;;;;10.00;99.90;;;;;;5389756;26;19965;-77
2024/04/16 08:14:56;;;;;;;;;;;10.10;99.90;;;;;;5426526;26;19946;-76
2024/04/16 08:17:22;;;;;;;;;;;10.60;99.90;;;;;;5412039;26;19936;-76
2024/04/16 08:19:47;;;;;;;;;;;11.30;99.90;;;;;;5416173;26;20024;-76
2024/04/16 08:22:13;;;;;;;;;;;11.60;99.90;;;;;;5384577;26;19961;-76
2024/04/16 08:24:38;;;;;;;;;;;12.00;99.90;;;;;;5418531;26;19959;-76
2024/04/16 08:27:04;;;;;;;;;;;13.20;99.90;;;;;;5415568;26;19928;-75
2024/04/16 08:29:29;;;;;;;;;;;14.00;99.90;;;;;;5417664;26;20008;-76
2024/04/16 08:31:55;;;;;;;;;;;14.10;99.90;;;;;;5385235;26;19929;-76
2024/04/16 08:34:20;;;;;;;;;;;13.30;99.90;;;;;;5385219;26;19936;-75
2024/04/16 08:36:46;;;;;;;;;;;12.50;99.90;;;;;;5385918;26;19936;-75
2024/04/16 08:39:11;;;;;;;;;;;12.00;99.90;;;;;;5384785;26;19993;-76
2024/04/16 08:41:37;;;;;;;;;;;11.80;99.90;;;;;;5385801;26;20392;-78
2024/04/16 08:44:05;;;;;;;;;;;11.80;99.90;;;;;;5370555;26;20271;-77
2024/04/16 08:46:32;;;;;;;;;;;11.80;99.90;;;;;;5373901;26;20353;-78
2024/04/16 08:48:58;;;;;;;;;;;11.80;99.90;;;;;;5423654;26;19972;-77
2024/04/16 08:51:24;;;;;;;;;;;12.10;99.90;;;;;;5390460;26;19932;-75
2024/04/16 08:53:50;;;;;;;;;;;12.70;99.90;;;;;;5385898;26;20060;-76
2024/04/16 08:56:17;;;;;;;;;;;13.00;99.90;;;;;;5392289;26;19944;-76
2024/04/16 08:58:44;;;;;;;;;;;13.30;99.90;;;;;;5419363;26;20290;-76
2024/04/16 09:01:10;;;;;;;;;;;13.50;99.90;;;;;;5415524;26;19937;-76
2024/04/16 09:03:36;;;;;;;;;;;13.70;99.90;;;;;;5414586;26;19936;-75
2024/04/16 09:06:03;;;;;;;;;;;13.70;99.90;;;;;;5415396;26;19936;-75
2024/04/16 09:08:29;;;;;;;;;;;13.60;99.90;;;;;;5415410;26;19940;-75
2024/04/16 09:10:55;;;;;;;;;;;13.20;99.90;;;;;;5389079;26;19933;-75
2024/04/16 09:13:21;;;;;;;;;;;12.70;99.90;;;;;;5414806;26;19933;-75
2024/04/16 09:15:46;;;;;;;;;;;12.30;99.90;;;;;;5415162;26;19933;-74
2024/04/16 09:18:13;;;;;;;;;;;12.30;99.90;;;;;;5389677;26;19941;-74
2024/04/16 09:20:39;;;;;;;;;;;12.20;99.90;;;;;;5384702;26;20310;-74
2024/04/16 09:23:04;;;;;;;;;;;11.90;99.90;;;;;;5383150;26;19939;-74
2024/04/16 09:25:30;;;;;;;;;;;11.70;99.90;;;;;;5417284;26;19929;-75
2024/04/16 09:27:56;;;;;;;;;;;11.80;99.90;;;;;;5399421;26;19956;-75
2024/04/16 09:30:22;;;;;;;;;;;12.10;99.90;;;;;;5441416;21;19933;-73
2024/04/16 09:32:56;;;;;;;;;;;12.40;99.90;;;;;;5456091;26;19972;-74
2024/04/16 09:35:28;;;;;;;;;;;12.90;99.90;;;;;;5463906;26;19928;-73
2024/04/16 09:38:04;;;;;;;;;;;13.40;99.90;;;;;;5497097;26;20271;-74
2024/04/16 09:40:29;;;;;;;;;;;13.50;99.90;;;;;;5486343;26;20375;-73
2024/04/16 09:42:59;;;;;;;;;;;13.70;99.90;;;;;;5497896;26;19927;-73
2024/04/16 09:45:24;;;;;;;;;;;13.70;99.90;;;;;;5486102;26;19940;-73
2024/04/16 09:47:50;;;;;;;;;;;13.90;99.90;;;;;;5495597;26;19959;-73
2024/04/16 09:50:19;;;;;;;;;;;13.80;99.90;;;;;;5476899;26;19935;-74
2024/04/16 09:52:48;;;;;;;;;;;13.80;99.90;;;;;;5498040;26;20425;-74
2024/04/16 09:55:14;;;;;;;;;;;14.00;99.90;;;;;;5486107;26;19940;-74
2024/04/16 09:57:40;;;;;;;;;;;13.90;99.90;;;;;;5479829;26;19935;-72
2024/04/16 10:00:06;;;;;;;;;;;14.00;99.90;;;;;;5480208;26;19935;-74
2024/04/16 10:02:32;;;;;;;;;;;14.40;99.90;;;;;;5499146;26;19934;-74
2024/04/16 10:05:00;;;;;;;;;;;14.60;99.90;;;;;;5484377;26;19927;-74
2024/04/16 10:07:25;;;;;;;;;;;14.30;99.90;;;;;;5490829;26;19932;-74
2024/04/16 10:09:51;;;;;;;;;;;14.10;99.90;;;;;;5475088;26;19940;-75
2024/04/16 10:12:17;;;;;;;;;;;13.60;99.90;;;;;;5482485;26;20392;-74
2024/04/16 10:14:43;;;;;;;;;;;13.30;99.90;;;;;;5487144;26;19939;-74
2024/04/16 10:17:12;;;;;;;;;;;12.90;99.90;;;;;;5486449;26;19928;-74
2024/04/16 10:19:37;;;;;;;;;;;12.70;99.90;;;;;;5486425;26;19928;-75
2024/04/16 10:22:03;;;;;;;;;;;12.50;99.90;;;;;;5470495;26;20359;-73
2024/04/16 10:24:31;;;;;;;;;;;12.40;99.90;;;;;;5489602;26;19993;-74
2024/04/16 10:27:01;;;;;;;;;;;12.60;99.90;;;;;;5488330;26;19932;-74
2024/04/16 10:29:27;;;;;;;;;;;12.80;99.90;;;;;;5498927;26;19946;-74
2024/04/16 10:31:53;;;;;;;;;;;12.90;99.90;;;;;;5499238;26;19931;-76
2024/04/16 10:34:19;;;;;;;;;;;13.00;99.90;;;;;;5490804;26;19951;-74
2024/04/16 10:36:46;;;;;;;;;;;13.10;99.90;;;;;;5493025;26;19940;-75
2024/04/16 10:39:12;;;;;;;;;;;13.20;99.90;;;;;;5493650;26;20266;-75
2024/04/16 10:41:37;;;;;;;;;;;13.50;99.90;;;;;;5491275;26;19939;-75
2024/04/16 10:44:03;;;;;;;;;;;13.50;99.90;;;;;;5493716;26;19932;-74
2024/04/16 10:46:28;;;;;;;;;;;13.40;99.90;;;;;;5484067;26;19996;-75
2024/04/16 10:48:55;;;;;;;;;;;13.30;99.90;;;;;;5482215;26;20370;-76
2024/04/16 10:51:21;;;;;;;;;;;13.20;99.90;;;;;;5493593;26;19932;-74
2024/04/16 10:53:47;;;;;;;;;;;13.20;99.90;;;;;;5496931;26;19938;-75
2024/04/16 10:56:12;;;;;;;;;;;13.40;99.90;;;;;;5487587;26;19928;-75
2024/04/16 10:58:38;;;;;;;;;;;13.70;99.90;;;;;;5485939;26;19935;-76
2024/04/16 11:01:04;;;;;;;;;;;14.00;99.90;;;;;;5486385;26;20005;-71
2024/04/16 11:03:33;;;;;;;;;;;14.40;99.90;;;;;;5485840;26;19928;-73
2024/04/16 11:05:59;;;;;;;;;;;14.70;99.90;;;;;;5496479;26;19935;-74
2024/04/16 11:08:26;;;;;;;;;;;15.20;99.90;;;;;;5466553;26;20275;-74
2024/04/16 11:10:52;;;;;;;;;;;15.40;99.90;;;;;;5484465;26;19939;-74
2024/04/16 11:13:21;;;;;;;;;;;15.30;99.90;;;;;;5488779;26;19928;-73
2024/04/16 11:15:46;;;;;;;;;;;14.70;99.90;;;;;;5485982;26;19974;-74
2024/04/16 11:18:12;;;;;;;;;;;14.60;99.90;;;;;;5485492;26;19963;-74
2024/04/16 11:20:39;;;;;;;;;;;14.80;99.90;;;;;;5492971;26;19936;-74
2024/04/16 11:23:04;;;;;;;;;;;14.90;99.90;;;;;;5490483;26;20568;-75
2024/04/16 11:25:30;;;;;;;;;;;14.90;99.90;;;;;;5490998;26;19927;-73
2024/04/16 11:27:56;;;;;;;;;;;14.90;99.90;;;;;;5482391;26;19928;-74
2024/04/16 11:30:22;;;;;;;;;;;14.90;99.90;;;;;;5492854;26;19938;-74
2024/04/16 11:32:47;;;;;;;;;;;14.80;99.90;;;;;;5492956;26;19928;-74
2024/04/16 11:35:13;;;;;;;;;;;14.80;99.90;;;;;;5500626;26;19934;-74
2024/04/16 11:37:38;;;;;;;;;;;14.40;99.90;;;;;;5496213;26;19939;-74
2024/04/16 11:40:07;;;;;;;;;;;14.10;99.90;;;;;;5482896;26;19936;-74
2024/04/16 11:42:34;;;;;;;;;;;14.00;99.90;;;;;;5485707;26;20277;-75
2024/04/16 11:44:59;;;;;;;;;;;14.10;99.90;;;;;;5481101;26;20329;-73
2024/04/16 11:47:25;;;;;;;;;;;14.40;99.90;;;;;;5488697;26;19927;-76
2024/04/16 11:49:50;;;;;;;;;;;14.80;99.90;;;;;;5477033;26;19947;-74
2024/04/16 11:52:16;;;;;;;;;;;15.00;99.90;;;;;;5479847;26;19927;-74
2024/04/16 11:54:41;;;;;;;;;;;15.10;99.90;;;;;;5487884;26;19932;-75
2024/04/16 11:57:07;;;;;;;;;;;14.70;99.90;;;;;;5479442;26;19934;-76
2024/04/16 11:59:34;;;;;;;;;;;14.50;99.90;;;;;;5485643;26;19996;-74
2024/04/16 12:02:00;;;;;;;;;;;14.30;99.90;;;;;;5484166;26;19956;-76
2024/04/16 12:04:25;;;;;;;;;;;14.20;99.90;;;;;;5487403;26;19935;-75
2024/04/16 12:06:51;;;;;;;;;;;14.10;99.90;;;;;;5496143;26;19928;-75
2024/04/16 12:09:16;;;;;;;;;;;13.90;99.90;;;;;;5488365;26;20376;-75
2024/04/16 12:11:42;;;;;;;;;;;13.90;99.90;;;;;;5493392;26;19936;-74
2024/04/16 12:14:07;;;;;;;;;;;14.10;99.90;;;;;;5482345;26;19996;-75
2024/04/16 12:16:33;;;;;;;;;;;14.00;99.90;;;;;;5488776;26;20274;-74
2024/04/16 12:19:00;;;;;;;;;;;13.80;99.90;;;;;;5490899;25;19932;-76
2024/04/16 12:21:25;;;;;;;;;;;14.00;99.90;;;;;;5495820;26;19928;-76
2024/04/16 12:23:52;;;;;;;;;;;14.50;99.90;;;;;;5495375;26;19934;-76
2024/04/16 12:26:18;;;;;;;;;;;14.90;99.90;;;;;;5489399;26;19936;-76
2024/04/16 12:28:45;;;;;;;;;;;14.90;99.90;;;;;;5480125;26;19944;-76
2024/04/16 12:31:11;;;;;;;;;;;14.80;99.90;;;;;;5486266;26;19951;-75
2024/04/16 12:33:37;;;;;;;;;;;14.60;99.90;;;;;;5493106;26;19996;-75
2024/04/16 12:36:02;;;;;;;;;;;14.20;99.90;;;;;;5487130;26;19932;-74
2024/04/16 12:38:29;;;;;;;;;;;13.80;99.90;;;;;;5491841;26;20343;-75
2024/04/16 12:40:55;;;;;;;;;;;13.60;99.90;;;;;;5491951;26;19935;-75
2024/04/16 12:43:21;;;;;;;;;;;13.60;99.90;;;;;;5501804;25;19935;-75
2024/04/16 12:45:47;;;;;;;;;;;13.50;99.90;;;;;;5467025;26;19960;-75
2024/04/16 12:48:20;;;;;;;;;;;13.40;99.90;;;;;;5493288;26;20379;-76
2024/04/16 12:50:45;;;;;;;;;;;13.40;99.90;;;;;;5473627;26;19928;-75
2024/04/16 12:53:11;;;;;;;;;;;13.60;99.90;;;;;;5487150;26;19934;-75
2024/04/16 12:55:36;;;;;;;;;;;13.70;99.90;;;;;;5479909;26;19928;-75
2024/04/16 12:58:02;;;;;;;;;;;13.90;99.90;;;;;;5490595;26;19928;-76
2024/04/16 13:00:27;;;;;;;;;;;14.10;99.90;;;;;;5488898;26;20312;-75
2024/04/16 13:02:53;;;;;;;;;;;14.30;99.90;;;;;;5493153;26;19963;-75
2024/04/16 13:05:19;;;;;;;;;;;14.30;99.90;;;;;;5470190;26;19936;-76
2024/04/16 13:07:45;;;;;;;;;;;14.20;99.90;;;;;;5493727;26;19932;-75
2024/04/16 13:10:11;;;;;;;;;;;14.10;99.90;;;;;;5494956;26;19938;-75
2024/04/16 13:12:37;;;;;;;;;;;14.00;99.90;;;;;;5486518;26;19935;-74
2024/04/16 13:15:04;;;;;;;;;;;14.00;99.90;;;;;;5492479;26;19952;-75
2024/04/16 13:17:29;;;;;;;;;;;13.80;99.90;;;;;;5486546;26;19936;-75
2024/04/16 13:19:55;;;;;;;;;;;13.80;99.90;;;;;;5473462;26;20386;-75
2024/04/16 13:22:20;;;;;;;;;;;13.80;99.90;;;;;;5486524;26;19928;-75
2024/04/16 13:24:46;;;;;;;;;;;13.90;99.90;;;;;;5483751;26;20000;-74
2024/04/16 13:27:11;;;;;;;;;;;14.00;99.90;;;;;;5485141;26;19935;-75
2024/04/16 13:29:37;;;;;;;;;;;14.30;99.90;;;;;;5497754;26;19996;-75
2024/04/16 13:32:04;;;;;;;;;;;14.80;99.90;;;;;;5484851;26;19928;-75
2024/04/16 13:34:29;;;;;;;;;;;14.90;99.90;;;;;;5488546;26;19996;-76
2024/04/16 13:36:55;;;;;;;;;;;14.90;99.90;;;;;;5472893;26;19935;-75
2024/04/16 13:39:21;;;;;;;;;;;15.10;99.90;;;;;;5483780;26;19935;-74
2024/04/16 13:41:46;;;;;;;;;;;15.00;99.90;;;;;;5483341;26;19935;-75
2024/04/16 13:44:12;;;;;;;;;;;14.80;99.90;;;;;;5462948;26;19939;-75
2024/04/16 13:46:39;;;;;;;;;;;14.80;99.90;;;;;;5485624;26;19996;-75
2024/04/16 13:49:04;;;;;;;;;;;14.70;99.90;;;;;;5487756;26;19936;-75
2024/04/16 13:51:30;;;;;;;;;;;14.50;99.90;;;;;;5492741;26;20016;-76
2024/04/16 13:53:55;;;;;;;;;;;13.90;99.90;;;;;;5493396;26;20546;-75
2024/04/16 13:56:21;;;;;;;;;;;13.40;99.90;;;;;;5498439;26;19939;-75
2024/04/16 13:58:46;;;;;;;;;;;13.20;99.90;;;;;;5488974;26;20260;-75
2024/04/16 14:01:12;;;;;;;;;;;12.90;99.90;;;;;;5485001;26;19961;-75
2024/04/16 14:03:37;;;;;;;;;;;12.50;99.90;;;;;;5481780;26;19940;-75
2024/04/16 14:06:03;;;;;;;;;;;12.40;99.90;;;;;;5497386;26;20271;-75
2024/04/16 14:08:29;;;;;;;;;;;12.00;99.90;;;;;;5487427;26;19939;-75
2024/04/16 14:10:55;;;;;;;;;;;11.70;99.90;;;;;;5493692;25;19935;-74
2024/04/16 14:13:20;;;;;;;;;;;11.50;99.90;;;;;;5485018;26;20348;-75
2024/04/16 14:15:46;;;;;;;;;;;11.30;99.90;;;;;;5489403;26;20020;-75